createdAt,value
2023-03-29T00:00:39.159Z,18.55
2023-03-29T00:03:45.697Z,19.02
2023-03-29T00:06:50.594Z,19.13
2023-03-29T00:09:54.726Z,19.13
2023-03-29T00:12:59.856Z,19.23
2023-03-29T00:16:04.703Z,18.25
2023-03-29T00:19:09.654Z,18.13
2023-03-29T00:22:14.926Z,17.08
2023-03-29T00:25:19.382Z,19.63
2023-03-29T00:28:24.452Z,19.52
2023-03-29T00:31:28.908Z,19.70
2023-03-29T00:34:36.083Z,19.65
2023-03-29T00:37:41.334Z,20.85
2023-03-29T00:40:47.320Z,21.77
2023-03-29T00:44:02.093Z,22.48
2023-03-29T00:47:06.632Z,21.10
2023-03-29T00:50:30.868Z,22.33
2023-03-29T00:53:46.824Z,22.10
2023-03-29T00:56:51.681Z,22.40
2023-03-29T00:59:57.764Z,23.95
2023-03-29T01:03:13.689Z,23.60
2023-03-29T01:06:22.771Z,21.35
2023-03-29T01:09:30.362Z,23.13
2023-03-29T01:12:46.626Z,21.05
2023-03-29T01:15:51.279Z,22.15
2023-03-29T01:19:02.275Z,22.30
2023-03-29T01:22:18.421Z,20.00
2023-03-29T01:25:55.643Z,20.27
2023-03-29T01:29:09.917Z,18.98
2023-03-29T01:32:26.040Z,19.00
2023-03-29T01:36:13.911Z,20.15
2023-03-29T01:39:19.003Z,18.48
2023-03-29T01:42:33.420Z,19.00
2023-03-29T01:46:16.629Z,18.67
2023-03-29T01:49:43.932Z,18.67
2023-03-29T01:53:13.201Z,19.25
2023-03-29T01:56:22.976Z,20.67
2023-03-29T01:59:32.242Z,20.13
2023-03-29T02:02:41.699Z,20.20
2023-03-29T02:05:46.696Z,19.75
2023-03-29T02:08:53.059Z,21.05
2023-03-29T02:12:01.295Z,20.98
2023-03-29T02:15:13.262Z,21.38
2023-03-29T02:18:19.811Z,20.38
2023-03-29T02:21:42.557Z,21.05
2023-03-29T02:24:50.071Z,21.13
2023-03-29T02:27:54.772Z,20.40
2023-03-29T02:31:30.681Z,20.25
2023-03-29T02:34:41.748Z,21.35
2023-03-29T02:37:49.589Z,22.42
2023-03-29T02:40:56.993Z,21.83
2023-03-29T02:44:04.304Z,21.23
2023-03-29T02:47:25.072Z,20.30
2023-03-29T02:50:37.477Z,20.63
2023-03-29T02:54:13.478Z,19.92
2023-03-29T02:57:18.273Z,18.95
2023-03-29T03:00:24.057Z,18.42
2023-03-29T03:03:29.141Z,18.77
2023-03-29T03:06:33.869Z,17.83
2023-03-29T03:18:55.521Z,16.55
2023-03-29T03:21:59.915Z,16.80
2023-03-29T03:25:04.885Z,16.73
2023-03-29T03:28:09.276Z,16.63
2023-03-29T03:31:15.899Z,14.25
2023-03-29T03:34:19.954Z,14.85
2023-03-29T03:37:24.840Z,16.40
2023-03-29T03:40:29.242Z,13.93
2023-03-29T03:43:34.476Z,13.23
2023-03-29T03:46:38.733Z,14.32
2023-03-29T03:49:43.513Z,13.85
2023-03-29T03:52:47.637Z,12.88
2023-03-29T03:55:55.829Z,12.68
2023-03-29T03:59:00.154Z,10.77
2023-03-29T04:02:05.644Z,12.05
2023-03-29T04:05:10.133Z,11.18
2023-03-29T04:08:15.099Z,9.43
2023-03-29T04:11:19.516Z,8.75
2023-03-29T04:14:25.996Z,8.70
2023-03-29T04:17:30.490Z,7.85
2023-03-29T04:20:35.211Z,9.15
2023-03-29T04:23:39.661Z,9.10
2023-03-29T04:26:44.386Z,8.65
2023-03-29T04:29:48.912Z,7.60
2023-03-29T04:32:53.231Z,8.00
2023-03-29T04:35:57.504Z,7.10
2023-03-29T04:39:02.023Z,7.38
2023-03-29T04:42:06.663Z,6.97
2023-03-29T04:45:13.997Z,7.25
2023-03-29T04:48:18.374Z,6.63
2023-03-29T04:51:24.328Z,6.55
2023-03-29T04:54:28.584Z,7.15
2023-03-29T04:57:33.433Z,7.03
2023-03-29T05:00:37.879Z,7.30
2023-03-29T05:03:42.241Z,6.90
2023-03-29T05:06:47.202Z,7.30
2023-03-29T05:09:51.991Z,7.50
2023-03-29T05:12:56.928Z,8.15
2023-03-29T05:16:02.522Z,7.22
2023-03-29T05:19:09.149Z,7.22
2023-03-29T05:22:14.272Z,6.88
2023-03-29T05:25:19.600Z,8.65
2023-03-29T05:28:23.787Z,8.23
2023-03-29T05:31:29.153Z,7.78
2023-03-29T05:34:33.598Z,8.40
2023-03-29T05:37:38.992Z,8.40
2023-03-29T05:40:43.214Z,8.02
2023-03-29T05:43:47.319Z,8.25
2023-03-29T05:46:52.629Z,8.18
2023-03-29T05:49:57.319Z,8.75
2023-03-29T05:53:01.636Z,8.25
2023-03-29T05:56:08.696Z,9.13
2023-03-29T05:59:13.877Z,9.35
2023-03-29T06:02:18.730Z,9.70
2023-03-29T06:05:22.864Z,9.73
2023-03-29T06:08:28.523Z,9.93
2023-03-29T06:11:34.908Z,11.00
2023-03-29T06:14:39.037Z,10.93
2023-03-29T06:17:47.242Z,12.02
2023-03-29T06:20:53.638Z,12.35
2023-03-29T06:23:58.654Z,12.32
2023-03-29T06:27:03.056Z,13.45
2023-03-29T06:30:08.057Z,13.50
2023-03-29T06:33:14.185Z,13.48
2023-03-29T06:36:20.097Z,13.93
2023-03-29T06:39:26.295Z,15.02
2023-03-29T06:42:30.732Z,15.15
2023-03-29T06:45:37.817Z,14.50
2023-03-29T06:48:42.151Z,15.00
2023-03-29T06:51:46.922Z,15.38
2023-03-29T06:54:51.589Z,16.48
2023-03-29T06:57:56.095Z,15.00
2023-03-29T07:01:04.877Z,16.35
2023-03-29T07:04:10.021Z,16.63
2023-03-29T07:07:20.194Z,15.63
2023-03-29T07:10:32.240Z,17.27
2023-03-29T07:13:36.858Z,14.80
2023-03-29T07:16:41.059Z,15.25
2023-03-29T07:19:45.689Z,15.88
2023-03-29T07:22:51.218Z,16.15
2023-03-29T07:25:55.831Z,15.93
2023-03-29T07:29:00.997Z,16.05
2023-03-29T07:32:05.645Z,16.13
2023-03-29T07:35:12.137Z,14.65
2023-03-29T07:38:16.312Z,15.30
2023-03-29T07:41:21.146Z,15.60
2023-03-29T07:44:27.064Z,16.30
2023-03-29T07:47:31.868Z,15.73
2023-03-29T07:50:36.363Z,15.85
2023-03-29T07:53:40.543Z,14.50
2023-03-29T07:56:44.989Z,14.82
2023-03-29T07:59:49.625Z,14.68
2023-03-29T08:02:54.903Z,15.18
2023-03-29T08:06:02.990Z,15.48
2023-03-29T08:09:07.142Z,15.38
2023-03-29T08:12:11.672Z,15.07
2023-03-29T08:15:17.011Z,13.93
2023-03-29T08:18:21.778Z,14.65
2023-03-29T08:21:26.519Z,13.98
2023-03-29T08:24:31.134Z,12.77
2023-03-29T08:27:35.730Z,12.95
2023-03-29T08:30:39.934Z,13.65
2023-03-29T08:33:44.457Z,14.15
2023-03-29T08:36:49.056Z,13.90
2023-03-29T08:39:53.545Z,14.07
2023-03-29T08:43:19.642Z,13.48
2023-03-29T08:47:07.900Z,13.07
2023-03-29T08:50:13.886Z,13.52
2023-03-29T08:53:31.846Z,13.57
2023-03-29T08:56:39.387Z,12.48
2023-03-29T08:59:45.582Z,12.93
2023-03-29T09:02:53.842Z,14.00
2023-03-29T09:06:10.904Z,12.80
2023-03-29T09:09:20.773Z,12.50
2023-03-29T09:12:52.672Z,12.75
2023-03-29T09:16:09.909Z,11.95
2023-03-29T09:19:47.111Z,12.43
2023-03-29T09:23:46.970Z,13.07
2023-03-29T09:27:00.598Z,13.13
2023-03-29T09:30:17.117Z,12.07
2023-03-29T09:33:42.636Z,12.77
2023-03-29T09:37:01.706Z,11.45
2023-03-29T09:40:31.078Z,11.07
2023-03-29T09:43:41.630Z,11.30
2023-03-29T09:46:58.385Z,11.50
2023-03-29T09:50:31.466Z,11.00
2023-03-29T09:53:37.241Z,11.98
2023-03-29T09:56:41.964Z,11.02
2023-03-29T09:59:49.515Z,11.02
2023-03-29T10:02:57.179Z,11.48
2023-03-29T10:06:06.418Z,11.20
2023-03-29T10:09:21.926Z,11.00
2023-03-29T10:12:26.107Z,11.07
2023-03-29T10:15:31.589Z,11.02
2023-03-29T10:18:43.857Z,12.25
2023-03-29T10:21:53.857Z,11.70
2023-03-29T10:24:58.022Z,12.20
2023-03-29T10:28:16.126Z,11.70
2023-03-29T10:31:22.532Z,12.48
2023-03-29T10:34:28.161Z,12.65
2023-03-29T10:37:32.291Z,14.05
2023-03-29T10:40:48.042Z,13.13
2023-03-29T10:43:53.747Z,14.00
2023-03-29T10:47:19.482Z,14.73
2023-03-29T10:50:26.673Z,15.05
2023-03-29T10:53:34.884Z,14.63
2023-03-29T10:56:50.787Z,13.93
2023-03-29T11:00:08.275Z,15.38
2023-03-29T11:03:55.596Z,14.48
2023-03-29T11:07:18.033Z,15.93
2023-03-29T11:10:48.161Z,14.98
2023-03-29T11:14:22.501Z,15.50
2023-03-29T11:17:50.873Z,16.92
2023-03-29T11:21:45.762Z,15.60
2023-03-29T11:25:08.376Z,17.35
2023-03-29T11:28:41.387Z,18.67
2023-03-29T11:32:13.238Z,18.02
2023-03-29T11:35:36.864Z,18.25
2023-03-29T11:39:00.686Z,18.92
2023-03-29T11:42:17.779Z,18.90
2023-03-29T11:45:57.840Z,20.15
2023-03-29T11:49:44.396Z,19.58
2023-03-29T11:52:59.111Z,20.33
2023-03-29T11:56:19.263Z,20.98
2023-03-29T11:59:36.319Z,21.77
2023-03-29T12:03:14.825Z,21.75
2023-03-29T12:06:37.815Z,20.20
2023-03-29T12:09:59.995Z,23.73
2023-03-29T12:13:38.543Z,24.45
2023-03-29T12:17:01.274Z,23.67
2023-03-29T12:20:28.374Z,25.83
2023-03-29T12:23:33.493Z,27.48
2023-03-29T12:26:50.499Z,28.75
2023-03-29T12:30:34.228Z,28.77
2023-03-29T12:34:19.315Z,31.48
2023-03-29T12:38:04.204Z,31.85
2023-03-29T12:41:19.675Z,32.50
2023-03-29T12:44:24.542Z,32.92
2023-03-29T12:47:39.683Z,35.33
2023-03-29T12:51:07.767Z,33.95
2023-03-29T12:54:21.653Z,34.00
2023-03-29T12:57:38.085Z,33.65
2023-03-29T13:00:45.296Z,35.03
2023-03-29T13:03:55.295Z,33.95
2023-03-29T13:07:05.884Z,31.65
2023-03-29T13:10:30.823Z,32.97
2023-03-29T13:13:38.304Z,29.80
2023-03-29T13:16:43.765Z,30.63
2023-03-29T13:20:18.957Z,30.25
2023-03-29T13:24:06.745Z,30.70
2023-03-29T13:27:37.353Z,31.40
2023-03-29T13:31:06.284Z,31.17
2023-03-29T13:34:39.042Z,30.80
2023-03-29T13:38:21.616Z,32.47
2023-03-29T13:41:38.131Z,31.13
2023-03-29T13:44:46.089Z,31.10
2023-03-29T13:48:04.950Z,29.58
2023-03-29T13:51:21.773Z,30.27
2023-03-29T13:54:37.391Z,30.45
2023-03-29T13:57:52.620Z,31.40
2023-03-29T14:01:29.392Z,30.45
2023-03-29T14:04:43.529Z,32.13
2023-03-29T14:10:56.290Z,32.95
2023-03-29T14:14:08.507Z,31.90
2023-03-29T14:17:22.712Z,31.25
2023-03-29T14:20:27.630Z,30.70
2023-03-29T14:23:37.878Z,31.52
2023-03-29T14:26:47.050Z,31.88
2023-03-29T14:29:52.371Z,30.17
2023-03-29T14:32:57.066Z,32.30
2023-03-29T14:36:05.018Z,30.75
2023-03-29T14:39:21.892Z,29.45
2023-03-29T14:42:29.138Z,29.50
2023-03-29T14:45:33.634Z,28.42
2023-03-29T14:48:38.979Z,29.30
2023-03-29T14:51:47.846Z,27.77
2023-03-29T14:54:58.279Z,28.65
2023-03-29T14:58:02.674Z,27.20
2023-03-29T15:01:19.934Z,25.30
2023-03-29T15:04:31.600Z,25.05
2023-03-29T15:07:37.174Z,25.90
2023-03-29T15:10:44.750Z,29.00
2023-03-29T15:13:56.755Z,32.72
2023-03-29T15:17:43.070Z,31.65
2023-03-29T15:20:54.891Z,28.75
2023-03-29T15:24:02.100Z,29.55
2023-03-29T15:27:18.864Z,29.63
2023-03-29T15:30:39.273Z,30.63
2023-03-29T15:33:44.079Z,29.30
2023-03-29T15:36:48.708Z,30.52
2023-03-29T15:39:53.100Z,33.40
2023-03-29T15:42:57.242Z,34.38
2023-03-29T15:46:01.600Z,35.00
2023-03-29T15:49:06.021Z,34.97
2023-03-29T15:52:10.530Z,36.10
2023-03-29T15:55:15.060Z,36.10
2023-03-29T15:58:30.601Z,33.47
2023-03-29T16:01:37.767Z,33.58
2023-03-29T16:04:42.936Z,33.20
2023-03-29T16:07:47.521Z,31.80
2023-03-29T16:10:51.808Z,34.88
2023-03-29T16:13:57.210Z,33.20
2023-03-29T16:17:03.241Z,33.55
2023-03-29T16:20:10.151Z,33.70
2023-03-29T16:23:14.597Z,31.13
2023-03-29T16:26:19.016Z,32.92
2023-03-29T16:29:25.273Z,31.33
2023-03-29T16:32:29.580Z,29.30
2023-03-29T16:35:38.192Z,28.17
2023-03-29T16:38:42.461Z,29.30
2023-03-29T16:41:48.951Z,28.27
2023-03-29T16:44:54.699Z,27.08
2023-03-29T16:47:59.366Z,25.60
2023-03-29T16:51:04.427Z,27.40
2023-03-29T16:54:09.265Z,25.35
2023-03-29T16:57:13.827Z,25.92
2023-03-29T17:00:20.197Z,28.13
2023-03-29T17:03:24.798Z,24.80
2023-03-29T17:06:29.842Z,26.50
2023-03-29T17:09:34.186Z,26.60
2023-03-29T17:12:39.515Z,23.85
2023-03-29T17:15:44.239Z,26.90
2023-03-29T17:18:48.914Z,27.48
2023-03-29T17:24:57.523Z,28.60
2023-03-29T17:28:01.736Z,29.38
2023-03-29T17:31:07.811Z,28.55
2023-03-29T17:34:13.002Z,29.83
2023-03-29T17:37:17.594Z,29.60
2023-03-29T17:40:22.474Z,29.85
2023-03-29T17:43:27.187Z,29.55
2023-03-29T17:46:32.283Z,29.20
2023-03-29T17:49:37.151Z,28.42
2023-03-29T17:52:41.447Z,28.48
2023-03-29T17:58:50.689Z,27.38
2023-03-29T18:01:54.957Z,26.75
2023-03-29T18:05:02.531Z,29.35
2023-03-29T18:08:08.683Z,29.65
2023-03-29T18:11:22.359Z,26.08
2023-03-29T18:14:26.655Z,18.83
2023-03-29T18:17:31.471Z,26.73
2023-03-29T18:20:35.563Z,27.02
2023-03-29T18:23:42.157Z,27.58
2023-03-29T18:26:46.584Z,28.77
2023-03-29T18:29:51.041Z,28.40
2023-03-29T18:32:55.575Z,28.30
2023-03-29T18:36:01.680Z,26.65
2023-03-29T18:39:06.610Z,28.38
2023-03-29T18:42:12.238Z,29.42
2023-03-29T18:45:18.006Z,27.60
2023-03-29T18:48:22.312Z,29.17
2023-03-29T18:51:28.070Z,28.90
2023-03-29T18:54:32.515Z,29.90
2023-03-29T18:57:37.148Z,29.50
2023-03-29T19:00:43.378Z,29.00
2023-03-29T19:03:48.208Z,27.48
2023-03-29T19:06:53.682Z,28.65
2023-03-29T19:09:57.772Z,28.05
2023-03-29T19:13:01.936Z,31.45
2023-03-29T19:16:07.394Z,32.47
2023-03-29T19:19:12.824Z,33.95
2023-03-29T19:22:17.621Z,34.65
2023-03-29T19:25:22.244Z,34.72
2023-03-29T19:28:27.464Z,31.33
2023-03-29T19:31:33.494Z,33.25
2023-03-29T19:34:38.084Z,34.28
2023-03-29T19:37:42.817Z,34.17
2023-03-29T19:40:49.952Z,35.33
2023-03-29T19:43:54.618Z,34.53
2023-03-29T19:47:00.579Z,34.85
2023-03-29T19:50:06.997Z,34.30
2023-03-29T19:53:12.803Z,33.97
2023-03-29T19:56:17.835Z,34.13
2023-03-29T19:59:22.741Z,33.63
2023-03-29T20:02:27.428Z,33.30
2023-03-29T20:05:31.978Z,32.42
2023-03-29T20:08:38.714Z,31.58
2023-03-29T20:11:46.873Z,33.03
2023-03-29T20:14:51.595Z,31.27
2023-03-29T20:17:59.441Z,31.95
2023-03-29T20:21:06.712Z,32.50
2023-03-29T20:24:11.579Z,31.33
2023-03-29T20:27:15.952Z,30.10
2023-03-29T20:30:20.557Z,31.42
2023-03-29T20:33:24.877Z,30.50
2023-03-29T20:36:30.664Z,29.83
2023-03-29T20:39:35.676Z,31.45
2023-03-29T20:42:40.080Z,30.58
2023-03-29T20:45:53.381Z,31.55
2023-03-29T20:48:58.201Z,32.00
2023-03-29T20:52:08.363Z,32.30
2023-03-29T20:55:13.252Z,32.67
2023-03-29T20:58:17.804Z,32.53
2023-03-29T21:01:22.282Z,34.15
2023-03-29T21:04:27.937Z,32.22
2023-03-29T21:07:32.783Z,31.70
2023-03-29T21:10:37.232Z,33.60
2023-03-29T21:13:42.996Z,34.33
2023-03-29T21:16:50.763Z,35.60
2023-03-29T21:19:55.356Z,35.13
2023-03-29T21:23:00.193Z,37.08
2023-03-29T21:26:07.325Z,36.03
2023-03-29T21:29:11.939Z,37.33
2023-03-29T21:32:16.098Z,36.50
2023-03-29T21:35:20.611Z,38.10
2023-03-29T21:38:25.240Z,37.55
2023-03-29T21:41:29.589Z,39.85
2023-03-29T21:44:34.556Z,40.65
2023-03-29T21:47:39.274Z,40.95
2023-03-29T21:50:44.693Z,42.25
2023-03-29T21:53:49.125Z,42.40
2023-03-29T21:59:57.379Z,42.58
2023-03-29T22:03:01.614Z,43.92
2023-03-29T22:06:09.474Z,44.58
2023-03-29T22:09:14.099Z,45.63
2023-03-29T22:12:18.788Z,46.42
2023-03-29T22:15:22.905Z,48.47
2023-03-29T22:18:30.171Z,46.33
2023-03-29T22:21:37.294Z,46.60
2023-03-29T22:24:42.270Z,47.90
2023-03-29T22:27:48.909Z,46.42
2023-03-29T22:30:53.235Z,46.55
2023-03-29T22:33:58.601Z,46.50
2023-03-29T22:37:03.716Z,48.97
2023-03-29T22:40:10.167Z,47.03
2023-03-29T22:43:14.346Z,49.35
2023-03-29T22:46:19.746Z,50.00
2023-03-29T22:49:24.546Z,48.95
2023-03-29T22:52:28.763Z,48.47
2023-03-29T22:55:33.077Z,49.72
2023-03-29T22:58:37.769Z,50.80
2023-03-29T23:01:42.200Z,51.85
2023-03-29T23:04:47.529Z,53.97
2023-03-29T23:07:51.920Z,52.50
2023-03-29T23:10:56.494Z,51.95
2023-03-29T23:17:10.137Z,53.80
2023-03-29T23:20:14.651Z,53.38
2023-03-29T23:23:21.751Z,53.42
2023-03-29T23:26:27.763Z,52.03
2023-03-29T23:29:31.685Z,52.50
2023-03-29T23:32:36.259Z,53.10
2023-03-29T23:35:40.775Z,51.85
2023-03-29T23:38:46.879Z,51.95
2023-03-29T23:41:51.751Z,52.30
2023-03-29T23:44:56.128Z,52.53
2023-03-29T23:48:01.433Z,53.50
2023-03-29T23:51:08.120Z,51.28
2023-03-29T23:54:12.875Z,51.30
2023-03-29T23:57:17.314Z,53.20
